TAF KMLC
KMLC 280520Z 2806/2906 36003KT P6SM FEW070 SCT250 FM281500 36010KT P6SM FEW250 FM290100 18003KT P6SM SKC=
METAR KMLC
WC KMLC
WS KMLC
WV KMLC